createdAt,value
2018-10-19T00:00:25.646Z,99.90
2018-10-19T00:02:55.635Z,99.90
2018-10-19T00:05:25.122Z,99.90
2018-10-19T00:07:55.482Z,99.90
2018-10-19T00:10:24.938Z,99.90
2018-10-19T00:12:54.466Z,99.90
2018-10-19T00:15:23.957Z,99.90
2018-10-19T00:17:53.428Z,99.90
2018-10-19T00:20:22.963Z,99.90
2018-10-19T00:22:52.417Z,99.90
2018-10-19T00:25:21.937Z,99.90
2018-10-19T00:27:51.410Z,99.90
2018-10-19T00:30:20.885Z,99.90
2018-10-19T00:32:50.353Z,99.90
2018-10-19T00:35:19.835Z,99.90
2018-10-19T00:37:49.300Z,99.90
2018-10-19T00:40:18.817Z,99.90
2018-10-19T00:42:48.305Z,99.90
2018-10-19T00:45:17.802Z,99.90
2018-10-19T00:47:47.285Z,99.90
2018-10-19T00:50:16.758Z,99.90
2018-10-19T00:52:46.268Z,99.90
2018-10-19T00:55:15.742Z,99.90
2018-10-19T00:57:45.242Z,99.90
2018-10-19T01:00:14.754Z,99.90
2018-10-19T01:02:44.214Z,99.90
2018-10-19T01:05:13.682Z,99.90
2018-10-19T01:07:43.200Z,99.90
2018-10-19T01:10:16.112Z,99.90
2018-10-19T01:12:45.585Z,99.90
2018-10-19T01:15:15.141Z,99.90
2018-10-19T01:17:44.618Z,99.90
2018-10-19T01:20:14.153Z,99.90
2018-10-19T01:22:43.602Z,99.90
2018-10-19T01:25:13.171Z,99.90
2018-10-19T01:27:42.678Z,99.90
2018-10-19T01:30:12.212Z,99.90
2018-10-19T01:32:41.706Z,99.90
2018-10-19T01:35:12.465Z,99.90
2018-10-19T01:37:42.017Z,99.90
2018-10-19T01:40:12.472Z,99.90
2018-10-19T01:42:42.452Z,99.90
2018-10-19T01:45:13.053Z,99.90
2018-10-19T01:47:43.022Z,99.90
2018-10-19T01:50:12.517Z,99.90
2018-10-19T01:52:42.081Z,99.90
2018-10-19T01:55:11.591Z,99.90
2018-10-19T01:57:41.090Z,99.90
2018-10-19T02:00:10.621Z,99.90
2018-10-19T02:02:40.098Z,99.90
2018-10-19T02:05:09.801Z,99.90
2018-10-19T02:07:39.250Z,99.90
2018-10-19T02:10:08.774Z,99.90
2018-10-19T02:12:38.310Z,99.90
2018-10-19T02:15:08.404Z,99.90
2018-10-19T02:17:38.235Z,99.90
2018-10-19T02:20:07.737Z,99.90
2018-10-19T02:22:37.178Z,99.90
2018-10-19T02:25:06.962Z,99.90
2018-10-19T02:27:36.424Z,99.90
2018-10-19T02:30:07.787Z,99.90
2018-10-19T02:32:37.297Z,99.90
2018-10-19T02:35:06.954Z,99.90
2018-10-19T02:37:36.402Z,99.90
2018-10-19T02:40:07.049Z,99.90
2018-10-19T02:42:36.839Z,99.90
2018-10-19T02:45:07.009Z,99.90
2018-10-19T02:47:36.513Z,99.90
2018-10-19T02:50:06.833Z,99.90
2018-10-19T02:52:36.283Z,99.90
2018-10-19T02:55:06.502Z,99.90
2018-10-19T02:57:35.966Z,99.90
2018-10-19T03:00:06.946Z,99.90
2018-10-19T03:02:37.041Z,99.90
2018-10-19T03:05:07.439Z,99.90
2018-10-19T03:07:36.925Z,99.90
2018-10-19T03:10:06.803Z,99.90
2018-10-19T03:12:36.261Z,99.90
2018-10-19T03:15:07.144Z,99.90
2018-10-19T03:17:36.612Z,99.90
2018-10-19T03:20:07.806Z,99.90
2018-10-19T03:22:37.590Z,99.90
2018-10-19T03:25:07.469Z,99.90
2018-10-19T03:27:36.966Z,99.90
2018-10-19T03:30:07.221Z,99.90
2018-10-19T03:32:36.673Z,99.90
2018-10-19T03:35:07.026Z,99.90
2018-10-19T03:37:36.501Z,99.90
2018-10-19T03:40:06.268Z,99.90
2018-10-19T03:42:35.777Z,99.90
2018-10-19T03:45:05.424Z,99.90
2018-10-19T03:47:34.977Z,99.90
2018-10-19T03:50:04.561Z,99.90
2018-10-19T03:52:34.052Z,99.90
2018-10-19T03:55:03.570Z,99.90
2018-10-19T03:57:33.053Z,99.90
2018-10-19T04:00:02.566Z,99.90
2018-10-19T04:02:32.049Z,99.90
2018-10-19T04:05:01.617Z,99.90
2018-10-19T04:07:37.745Z,99.90
2018-10-19T04:10:07.774Z,99.90
2018-10-19T04:12:37.286Z,99.90
2018-10-19T04:15:07.991Z,99.90
2018-10-19T04:17:38.326Z,99.90
2018-10-19T04:20:08.765Z,99.90
2018-10-19T04:22:38.230Z,99.90
2018-10-19T04:25:07.753Z,99.90
2018-10-19T04:27:37.377Z,99.90
2018-10-19T04:30:08.046Z,99.90
2018-10-19T04:32:37.589Z,99.90
2018-10-19T04:35:07.419Z,99.90
2018-10-19T04:37:36.927Z,99.90
2018-10-19T04:40:11.173Z,99.90
2018-10-19T04:42:40.648Z,99.90
2018-10-19T04:45:10.153Z,99.90
2018-10-19T04:47:39.660Z,99.90
2018-10-19T04:50:09.131Z,99.90
2018-10-19T04:52:38.738Z,99.90
2018-10-19T04:55:11.705Z,99.90
2018-10-19T04:57:41.174Z,99.90
2018-10-19T05:00:10.636Z,99.90
2018-10-19T05:02:40.242Z,99.90
2018-10-19T05:05:10.103Z,99.90
2018-10-19T05:07:39.734Z,99.90
2018-10-19T05:10:09.992Z,99.90
2018-10-19T05:12:39.765Z,99.90
2018-10-19T05:15:10.411Z,99.90
2018-10-19T05:17:40.010Z,99.90
2018-10-19T05:20:12.389Z,99.90
2018-10-19T05:22:41.806Z,99.90
2018-10-19T05:25:12.519Z,99.90
2018-10-19T05:27:42.018Z,99.90
2018-10-19T05:30:12.783Z,99.90
2018-10-19T05:32:43.138Z,99.90
2018-10-19T05:35:12.938Z,99.90
2018-10-19T05:37:42.622Z,99.90
2018-10-19T05:40:12.171Z,99.90
2018-10-19T05:42:41.921Z,99.90
2018-10-19T05:45:13.326Z,99.90
2018-10-19T05:47:42.805Z,99.90
2018-10-19T05:50:12.842Z,99.90
2018-10-19T05:52:43.114Z,99.90
2018-10-19T05:55:12.590Z,99.90
2018-10-19T05:57:42.106Z,99.90
2018-10-19T06:00:12.418Z,99.90
2018-10-19T06:02:43.020Z,99.90
2018-10-19T06:05:12.479Z,99.90
2018-10-19T06:07:42.340Z,99.90
2018-10-19T06:10:11.871Z,99.90
2018-10-19T06:12:41.357Z,99.90
2018-10-19T06:15:10.917Z,99.90
2018-10-19T06:17:40.376Z,99.90
2018-10-19T06:20:09.948Z,99.90
2018-10-19T06:22:39.346Z,99.90
2018-10-19T06:25:08.850Z,99.90
2018-10-19T06:27:38.342Z,99.90
2018-10-19T06:30:08.354Z,99.90
2018-10-19T06:32:38.298Z,99.90
2018-10-19T06:35:08.441Z,99.90
2018-10-19T06:37:37.946Z,99.90
2018-10-19T06:40:07.478Z,99.90
2018-10-19T06:42:36.959Z,99.90
2018-10-19T06:45:07.436Z,99.90
2018-10-19T06:47:36.927Z,99.90
2018-10-19T06:50:08.575Z,99.90
2018-10-19T06:52:38.098Z,99.90
2018-10-19T06:55:08.982Z,99.90
2018-10-19T06:57:38.563Z,99.90
2018-10-19T07:00:08.232Z,99.90
2018-10-19T07:02:37.808Z,99.90
2018-10-19T07:05:07.444Z,99.90
2018-10-19T07:07:37.197Z,99.90
2018-10-19T07:10:08.252Z,99.90
2018-10-19T07:12:37.852Z,99.90
2018-10-19T07:15:08.261Z,99.90
2018-10-19T07:17:38.216Z,99.90
2018-10-19T07:20:08.932Z,99.90
2018-10-19T07:22:38.700Z,99.90
2018-10-19T07:25:08.774Z,99.90
2018-10-19T07:27:38.382Z,99.90
2018-10-19T07:30:08.386Z,99.90
2018-10-19T07:32:38.538Z,99.90
2018-10-19T07:35:08.563Z,99.90
2018-10-19T07:37:38.135Z,99.90
2018-10-19T07:40:07.914Z,99.90
2018-10-19T07:42:37.492Z,99.90
2018-10-19T07:45:07.567Z,99.90
2018-10-19T07:47:37.245Z,99.90
2018-10-19T07:50:08.454Z,99.90
2018-10-19T07:52:39.088Z,99.90
2018-10-19T07:55:09.995Z,99.90
2018-10-19T07:57:39.607Z,99.90
2018-10-19T08:00:11.626Z,99.90
2018-10-19T08:02:41.254Z,99.90
2018-10-19T08:05:11.614Z,99.90
2018-10-19T08:07:41.116Z,99.90
2018-10-19T08:10:11.286Z,99.90
2018-10-19T08:12:40.850Z,99.50
2018-10-19T08:15:10.596Z,99.20
2018-10-19T08:17:40.434Z,98.20
2018-10-19T08:20:10.700Z,98.80
2018-10-19T08:22:40.409Z,98.40
2018-10-19T08:25:09.976Z,98.00
2018-10-19T08:27:39.555Z,97.50
2018-10-19T08:30:09.150Z,97.30
2018-10-19T08:32:39.444Z,96.90
2018-10-19T08:35:09.129Z,97.00
2018-10-19T08:37:39.286Z,97.00
2018-10-19T08:40:08.864Z,96.70
2018-10-19T08:42:38.500Z,97.00
2018-10-19T08:45:08.307Z,96.50
2018-10-19T08:47:37.886Z,95.80
2018-10-19T08:50:07.980Z,95.30
2018-10-19T08:52:37.563Z,94.60
2018-10-19T08:55:07.380Z,94.50
2018-10-19T08:57:37.007Z,94.50
2018-10-19T09:00:08.348Z,93.80
2018-10-19T09:02:38.812Z,93.30
2018-10-19T09:05:09.753Z,93.20
2018-10-19T09:07:39.411Z,93.90
2018-10-19T09:10:09.244Z,94.00
2018-10-19T09:12:39.059Z,93.50
2018-10-19T09:15:08.726Z,92.70
2018-10-19T09:17:38.290Z,92.80
2018-10-19T09:20:08.086Z,92.70
2018-10-19T09:22:37.763Z,92.60
2018-10-19T09:25:07.500Z,92.10
2018-10-19T09:27:37.227Z,92.70
2018-10-19T09:30:07.668Z,92.50
2018-10-19T09:32:37.270Z,91.20
2018-10-19T09:35:07.113Z,91.20
2018-10-19T09:37:36.718Z,91.00
2018-10-19T09:40:06.629Z,91.10
2018-10-19T09:42:36.292Z,91.20
2018-10-19T09:45:06.764Z,91.50
2018-10-19T09:47:38.418Z,91.40
2018-10-19T09:50:08.099Z,90.20
2018-10-19T09:52:37.712Z,90.20
2018-10-19T09:55:08.415Z,90.10
2018-10-19T09:57:38.071Z,89.30
2018-10-19T10:00:15.229Z,88.80
2018-10-19T10:02:44.824Z,88.10
2018-10-19T10:05:14.484Z,87.40
2018-10-19T10:07:45.103Z,87.20
2018-10-19T10:10:14.661Z,84.60
2018-10-19T10:12:44.251Z,84.10
2018-10-19T10:15:14.126Z,83.10
2018-10-19T10:17:43.674Z,82.90
2018-10-19T10:20:13.330Z,80.90
2018-10-19T10:22:42.933Z,78.80
2018-10-19T10:25:12.514Z,78.10
2018-10-19T10:27:42.140Z,77.90
2018-10-19T10:30:12.624Z,78.90
2018-10-19T10:32:42.251Z,76.80
2018-10-19T10:35:11.887Z,77.10
2018-10-19T10:37:41.476Z,75.60
2018-10-19T10:43:12.662Z,72.90
2018-10-19T10:45:42.317Z,71.10
2018-10-19T10:48:11.931Z,70.60
2018-10-19T10:50:41.616Z,69.10
2018-10-19T10:53:11.238Z,69.20
2018-10-19T10:55:40.820Z,68.40
2018-10-19T10:58:10.430Z,68.00
2018-10-19T11:00:40.060Z,67.70
2018-10-19T11:03:09.644Z,66.90
2018-10-19T11:05:39.240Z,65.30
2018-10-19T11:08:09.659Z,64.80
2018-10-19T11:10:39.413Z,64.60
2018-10-19T11:13:09.140Z,62.60
2018-10-19T11:15:38.750Z,61.30
2018-10-19T11:18:09.052Z,62.10
2018-10-19T11:20:38.796Z,61.70
2018-10-19T11:23:08.817Z,61.30
2018-10-19T11:25:39.117Z,59.30
2018-10-19T11:28:09.376Z,58.80
2018-10-19T11:30:39.079Z,57.80
2018-10-19T11:33:08.734Z,56.90
2018-10-19T11:35:38.547Z,56.40
2018-10-19T11:38:08.238Z,55.80
2018-10-19T11:40:38.758Z,55.10
2018-10-19T11:43:08.429Z,56.50
2018-10-19T11:45:38.968Z,55.40
2018-10-19T11:48:08.661Z,55.30
2018-10-19T11:50:39.104Z,55.30
2018-10-19T11:53:08.677Z,54.70
2018-10-19T11:55:38.438Z,53.40
2018-10-19T11:58:07.968Z,52.80
2018-10-19T12:00:37.461Z,53.30
2018-10-19T12:03:06.954Z,52.70
2018-10-19T12:05:36.450Z,51.00
2018-10-19T12:08:06.242Z,51.60
2018-10-19T12:10:35.735Z,50.70
2018-10-19T12:13:05.564Z,50.20
2018-10-19T12:15:36.022Z,49.50
2018-10-19T12:18:05.774Z,49.00
2018-10-19T12:20:35.268Z,48.10
2018-10-19T12:23:05.145Z,46.60
2018-10-19T12:25:34.636Z,44.80
2018-10-19T12:28:04.423Z,44.70
2018-10-19T12:30:33.951Z,45.10
2018-10-19T12:33:03.482Z,43.70
2018-10-19T12:35:33.027Z,42.50
2018-10-19T12:38:02.989Z,42.40
2018-10-19T12:40:32.475Z,43.90
2018-10-19T12:43:02.017Z,44.30
2018-10-19T12:46:42.161Z,44.50
2018-10-19T12:49:12.981Z,43.30
2018-10-19T12:51:42.433Z,40.60
2018-10-19T12:54:11.901Z,41.50
2018-10-19T12:56:41.470Z,42.40
2018-10-19T12:59:11.046Z,42.20
2018-10-19T13:01:40.542Z,42.90
2018-10-19T13:04:10.042Z,44.10
2018-10-19T13:06:39.609Z,45.30
2018-10-19T13:09:10.806Z,47.10
2018-10-19T13:11:40.332Z,48.80
2018-10-19T13:14:09.970Z,50.20
2018-10-19T13:16:39.508Z,51.00
2018-10-19T13:19:09.087Z,52.50
2018-10-19T13:21:38.542Z,52.70
2018-10-19T13:24:08.650Z,50.60
2018-10-19T13:26:38.235Z,47.30
2018-10-19T13:29:07.705Z,44.20
2018-10-19T13:31:37.205Z,42.80
2018-10-19T13:34:06.731Z,41.90
2018-10-19T13:36:36.248Z,40.00
2018-10-19T13:39:08.413Z,38.40
2018-10-19T13:41:38.291Z,37.60
2018-10-19T13:44:07.778Z,37.00
2018-10-19T13:46:38.496Z,35.50
2018-10-19T13:49:08.083Z,35.80
2018-10-19T13:51:38.454Z,35.10
2018-10-19T13:54:08.002Z,35.20
2018-10-19T13:56:37.588Z,34.90
2018-10-19T13:59:07.132Z,34.80
2018-10-19T14:01:36.604Z,34.80
2018-10-19T14:04:06.353Z,35.00
2018-10-19T14:06:36.754Z,34.40
2018-10-19T14:09:08.552Z,34.60
2018-10-19T14:11:39.545Z,35.00
2018-10-19T14:14:09.169Z,35.70
2018-10-19T14:16:38.635Z,36.20
2018-10-19T14:19:08.196Z,36.50
2018-10-19T14:21:38.310Z,37.60
2018-10-19T14:24:07.818Z,37.10
2018-10-19T14:26:37.459Z,37.50
2018-10-19T14:29:07.625Z,37.90
2018-10-19T14:31:37.143Z,38.50
2018-10-19T14:34:07.323Z,39.20
2018-10-19T14:36:36.843Z,39.10
2018-10-19T14:39:06.988Z,39.20
2018-10-19T14:41:36.715Z,39.40
2018-10-19T14:44:06.449Z,40.30
2018-10-19T14:46:36.030Z,40.80
2018-10-19T14:49:06.159Z,41.10
2018-10-19T14:51:35.679Z,42.00
2018-10-19T14:54:06.567Z,44.80
2018-10-19T14:56:36.094Z,47.90
2018-10-19T14:59:06.217Z,50.00
2018-10-19T15:01:36.658Z,51.90
2018-10-19T15:04:07.158Z,53.70
2018-10-19T15:06:37.093Z,54.40
2018-10-19T15:09:09.881Z,55.00
2018-10-19T15:11:41.895Z,55.90
2018-10-19T15:14:12.151Z,56.60
2018-10-19T15:16:41.737Z,57.40
2018-10-19T15:19:11.234Z,58.00
2018-10-19T15:21:41.086Z,58.70
2018-10-19T15:24:10.600Z,59.50
2018-10-19T15:26:40.059Z,60.80
2018-10-19T15:29:09.688Z,62.40
2018-10-19T15:31:39.102Z,64.20
2018-10-19T15:34:08.585Z,65.20
2018-10-19T15:36:38.271Z,66.50
2018-10-19T15:39:10.392Z,67.20
2018-10-19T15:41:40.102Z,67.60
2018-10-19T15:44:09.598Z,68.10
2018-10-19T15:46:39.157Z,68.80
2018-10-19T15:49:08.646Z,68.60
2018-10-19T15:51:38.118Z,70.40
2018-10-19T15:54:07.717Z,71.90
2018-10-19T15:56:37.290Z,73.10
2018-10-19T15:59:06.817Z,74.70
2018-10-19T16:01:36.273Z,75.50
2018-10-19T16:04:05.966Z,76.60
2018-10-19T16:06:35.475Z,77.50
2018-10-19T16:09:09.433Z,79.10
2018-10-19T16:11:38.917Z,78.70
2018-10-19T16:14:08.499Z,80.40
2018-10-19T16:16:38.049Z,80.00
2018-10-19T16:19:07.646Z,80.40
2018-10-19T16:21:37.158Z,80.70
2018-10-19T16:24:06.946Z,80.80
2018-10-19T16:26:36.502Z,81.00
2018-10-19T16:29:06.078Z,82.30
2018-10-19T16:31:35.563Z,83.40
2018-10-19T16:34:05.254Z,84.20
2018-10-19T16:36:34.778Z,84.90
2018-10-19T16:39:05.202Z,85.70
2018-10-19T16:41:34.705Z,86.30
2018-10-19T16:44:05.577Z,87.60
2018-10-19T16:46:35.078Z,88.40
2018-10-19T16:49:04.790Z,89.10
2018-10-19T16:51:34.314Z,89.60
2018-10-19T16:54:03.850Z,90.00
2018-10-19T16:56:33.311Z,90.10
2018-10-19T16:59:02.857Z,90.30
2018-10-19T17:01:32.354Z,90.40
2018-10-19T17:04:01.945Z,90.60
2018-10-19T17:06:31.394Z,90.90
2018-10-19T17:09:00.922Z,90.80
2018-10-19T17:11:35.242Z,91.00
2018-10-19T17:14:11.027Z,91.00
2018-10-19T17:16:40.657Z,91.10
2018-10-19T17:19:10.510Z,91.20
2018-10-19T17:21:39.998Z,91.40
2018-10-19T17:24:09.540Z,91.70
2018-10-19T17:26:39.038Z,92.00
2018-10-19T17:29:08.651Z,92.30
2018-10-19T17:31:38.347Z,92.40
2018-10-19T17:34:07.928Z,92.70
2018-10-19T17:36:37.486Z,92.80
2018-10-19T17:39:09.672Z,93.00
2018-10-19T17:41:42.206Z,93.10
2018-10-19T17:44:12.851Z,93.20
2018-10-19T17:46:42.509Z,93.20
2018-10-19T17:49:12.252Z,93.40
2018-10-19T17:51:41.705Z,93.60
2018-10-19T17:54:11.266Z,93.70
2018-10-19T17:56:41.483Z,93.80
2018-10-19T17:59:11.074Z,93.90
2018-10-19T18:01:40.475Z,94.00
2018-10-19T18:04:09.931Z,94.00
2018-10-19T18:06:39.426Z,94.10
2018-10-19T18:09:10.693Z,94.10
2018-10-19T18:11:40.537Z,94.20
2018-10-19T18:14:10.065Z,94.50
2018-10-19T18:16:39.602Z,94.60
2018-10-19T18:19:09.105Z,94.60
2018-10-19T18:21:38.707Z,94.60
2018-10-19T18:24:08.159Z,94.60
2018-10-19T18:26:39.183Z,94.60
2018-10-19T18:29:08.776Z,94.70
2018-10-19T18:31:38.221Z,94.80
2018-10-19T18:34:07.757Z,95.00
2018-10-19T18:36:37.579Z,95.00
2018-10-19T18:39:11.228Z,95.10
2018-10-19T18:41:40.797Z,95.30
2018-10-19T18:44:10.349Z,95.50
2018-10-19T18:46:39.787Z,95.60
2018-10-19T18:49:09.652Z,95.60
2018-10-19T18:51:39.176Z,95.70
2018-10-19T18:54:08.882Z,96.00
2018-10-19T18:56:38.444Z,95.70
2018-10-19T18:59:08.011Z,95.70
2018-10-19T19:01:37.682Z,95.80
2018-10-19T19:04:07.275Z,95.80
2018-10-19T19:06:36.764Z,96.00
2018-10-19T19:09:09.502Z,96.00
2018-10-19T19:11:39.095Z,96.00
2018-10-19T19:14:08.805Z,96.00
2018-10-19T19:16:38.343Z,96.00
2018-10-19T19:19:08.062Z,96.00
2018-10-19T19:21:37.685Z,96.00
2018-10-19T19:24:12.351Z,95.90
2018-10-19T19:26:42.036Z,96.00
2018-10-19T19:29:11.696Z,96.10
2018-10-19T19:31:41.900Z,96.20
2018-10-19T19:34:16.471Z,96.20
2018-10-19T19:36:47.889Z,96.30
2018-10-19T19:39:17.999Z,96.30
2018-10-19T19:41:52.938Z,96.30
2018-10-19T19:44:22.465Z,96.80
2018-10-19T19:46:52.098Z,96.50
2018-10-19T19:49:28.393Z,96.70
2018-10-19T19:51:57.874Z,96.80
2018-10-19T19:54:27.458Z,96.90
2018-10-19T19:56:56.991Z,97.00
2018-10-19T19:59:26.498Z,97.00
2018-10-19T20:01:56.160Z,96.90
2018-10-19T20:04:25.772Z,97.00
2018-10-19T20:06:55.306Z,97.00
2018-10-19T20:09:24.905Z,97.00
2018-10-19T20:11:56.445Z,97.00
2018-10-19T20:14:26.020Z,97.20
2018-10-19T20:16:55.567Z,97.30
2018-10-19T20:19:25.051Z,97.30
2018-10-19T20:21:55.917Z,97.40
2018-10-19T20:24:26.041Z,97.50
2018-10-19T20:26:55.534Z,97.40
2018-10-19T20:29:25.008Z,97.30
2018-10-19T20:31:54.499Z,97.30
2018-10-19T20:34:24.045Z,97.20
2018-10-19T20:36:53.624Z,97.50
2018-10-19T20:39:23.166Z,97.20
2018-10-19T20:41:52.678Z,97.20
2018-10-19T20:44:22.198Z,97.50
2018-10-19T20:46:52.134Z,97.30
2018-10-19T20:49:21.594Z,97.70
2018-10-19T20:51:51.086Z,97.30
2018-10-19T20:54:20.995Z,97.30
2018-10-19T20:56:50.449Z,97.50
2018-10-19T20:59:19.942Z,97.50
2018-10-19T21:01:49.482Z,97.50
2018-10-19T21:04:18.949Z,97.40
2018-10-19T21:06:48.468Z,97.30
2018-10-19T21:09:18.018Z,97.50
2018-10-19T21:11:47.489Z,97.50
2018-10-19T21:14:16.950Z,97.60
2018-10-19T21:16:46.458Z,97.60
2018-10-19T21:19:15.982Z,97.40
2018-10-19T21:21:45.570Z,97.40
2018-10-19T21:24:15.050Z,97.30
2018-10-19T21:26:44.517Z,97.30
2018-10-19T21:29:14.124Z,97.40
2018-10-19T21:31:43.530Z,97.60
2018-10-19T21:34:13.045Z,97.70
2018-10-19T21:36:42.507Z,97.80
2018-10-19T21:39:12.731Z,97.90
2018-10-19T21:41:42.202Z,97.90
2018-10-19T21:44:11.841Z,97.90
2018-10-19T21:46:41.514Z,98.00
2018-10-19T21:49:11.410Z,98.00
2018-10-19T21:51:40.936Z,98.00
2018-10-19T21:54:12.146Z,98.30
2018-10-19T21:56:41.651Z,97.90
2018-10-19T21:59:11.182Z,97.80
2018-10-19T22:01:42.198Z,98.10
2018-10-19T22:04:11.677Z,97.60
2018-10-19T22:06:41.198Z,97.50
2018-10-19T22:09:12.495Z,97.40
2018-10-19T22:11:43.117Z,97.40
2018-10-19T22:14:12.630Z,97.50
2018-10-19T22:16:42.113Z,97.40
2018-10-19T22:19:12.753Z,97.50
2018-10-19T22:21:42.245Z,97.40
2018-10-19T22:24:11.710Z,97.60
2018-10-19T22:26:41.242Z,97.50
2018-10-19T22:29:10.729Z,97.60
2018-10-19T22:31:40.252Z,97.60
2018-10-19T22:34:11.117Z,97.50
2018-10-19T22:36:40.579Z,97.90
2018-10-19T22:39:10.054Z,97.50
2018-10-19T22:41:39.510Z,98.00
2018-10-19T22:44:09.006Z,97.80
2018-10-19T22:46:40.490Z,97.80
2018-10-19T22:49:10.029Z,97.80
2018-10-19T22:51:39.462Z,97.90
2018-10-19T22:54:08.957Z,97.90
2018-10-19T22:56:38.435Z,97.80
2018-10-19T22:59:07.975Z,97.90
2018-10-19T23:01:37.494Z,98.00
2018-10-19T23:04:07.446Z,98.50
2018-10-19T23:06:37.033Z,98.20
2018-10-19T23:09:09.691Z,98.30
2018-10-19T23:11:39.286Z,98.30
2018-10-19T23:14:08.831Z,98.20
2018-10-19T23:16:38.358Z,98.20
2018-10-19T23:19:07.909Z,98.30
2018-10-19T23:21:37.742Z,98.50
2018-10-19T23:24:07.873Z,98.50
2018-10-19T23:26:37.401Z,98.50
2018-10-19T23:29:06.902Z,98.40
2018-10-19T23:31:36.545Z,98.40
2018-10-19T23:34:06.042Z,98.30
2018-10-19T23:36:35.616Z,98.20
2018-10-19T23:39:06.978Z,98.00
2018-10-19T23:41:36.429Z,98.10
2018-10-19T23:44:05.926Z,98.20
2018-10-19T23:46:35.429Z,98.30
2018-10-19T23:49:05.244Z,98.20
2018-10-19T23:51:34.739Z,98.30
2018-10-19T23:54:04.217Z,98.40
2018-10-19T23:56:35.004Z,98.20
2018-10-19T23:59:04.841Z,98.20
